首页
METAR-TAF:

METAR-TAF

机场 :

乌日策, 塞尔维亚

纬度: 43-53-56N, 经度: 19-41-52E, 海拔: 904米

当前天气观测

该预报发布于36分钟前的16:30 UTC
风速3节,风向多变
温度 15°C
湿度 67%
气压 1008 hPa
能见度10公里或以上
少量云层高于2500英尺

METAR: LYUZ 051630Z VRB03KT 9999 FEW025 15/09 Q1008

时间: 19:06 (17:06 UTC)

预报

该预报发布于6小时和6分钟前的11:00 UTC
预报有效从05日的 12点(UTC)到 06日的 12点(UTC)
风速6节,风向
能见度10公里或以上
1500米以下无云,无积雨云
短暂存在
从 05日的 12点(UTC)到 05日的 18点(UTC)
风速12节,风向南转西南,有时为22节阵风

TAF: LYUZ 051100Z 0512/0612 18006KT CAVOK TX18/0513Z TN09/0603Z TEMPO 0512/0518 20012G22KT

超过4000个机场的气象观测和天气预报(METAR&TAF报告)。

可查询的气象台以黄色和红色小点在地图上表示。

将鼠标移到小点上方,可查看气象台名称。

然后点击查看天气观测和预报。

如需切换地图:点击带黑十字的绿色按钮放大地图;点击带横线的绿色按钮缩小地图;或者点击绿色箭头查看邻近地区的地图。


METAR-TAF: